createdAt,value
2019-01-21T00:00:45.048Z,53.55
2019-01-21T00:03:31.273Z,53.70
2019-01-21T00:06:02.054Z,53.84
2019-01-21T00:08:32.505Z,54.05
2019-01-21T00:11:13.473Z,54.48
2019-01-21T00:13:48.676Z,54.79
2019-01-21T00:16:25.033Z,54.96
2019-01-21T00:18:57.787Z,54.88
2019-01-21T00:21:32.232Z,54.83
2019-01-21T00:24:06.040Z,55.36
2019-01-21T00:26:35.185Z,55.91
2019-01-21T00:29:15.020Z,56.43
2019-01-21T00:31:44.796Z,56.84
2019-01-21T00:34:20.942Z,57.18
2019-01-21T00:36:50.369Z,57.11
2019-01-21T00:39:19.227Z,57.04
2019-01-21T00:41:51.076Z,56.38
2019-01-21T00:44:20.247Z,56.07
2019-01-21T00:46:58.613Z,55.92
2019-01-21T00:49:29.631Z,55.74
2019-01-21T00:52:13.771Z,55.85
2019-01-21T00:54:45.811Z,55.88
2019-01-21T00:57:14.716Z,55.83
2019-01-21T00:59:47.148Z,55.55
2019-01-21T01:02:23.887Z,55.59
2019-01-21T01:05:11.106Z,56.34
2019-01-21T01:13:52.544Z,56.74
2019-01-21T01:16:24.442Z,56.88
2019-01-21T01:22:22.595Z,56.72
2019-01-21T01:25:01.700Z,56.47
2019-01-21T01:28:07.686Z,56.47
2019-01-21T01:34:03.576Z,56.41
2019-01-21T01:37:09.945Z,56.27
2019-01-21T01:43:26.522Z,56.34
2019-01-21T01:45:46.556Z,56.60
2019-01-21T01:48:53.057Z,56.73
2019-01-21T01:57:25.710Z,57.14
2019-01-21T02:00:18.737Z,57.04
2019-01-21T02:08:44.722Z,57.26
2019-01-21T02:11:14.767Z,57.71
2019-01-21T02:13:43.779Z,57.61
2019-01-21T02:16:31.749Z,57.46
2019-01-21T02:22:34.609Z,57.38
2019-01-21T02:31:23.228Z,57.48
2019-01-21T02:47:23.068Z,57.17
2019-01-21T02:49:27.240Z,56.87
2019-01-21T02:52:21.098Z,56.72
2019-01-21T02:57:37.249Z,56.33
2019-01-21T03:01:44.838Z,56.17
2019-01-21T03:03:52.906Z,56.17
2019-01-21T03:06:39.580Z,56.52
2019-01-21T03:09:16.750Z,57.43
2019-01-21T03:12:06.483Z,57.43
2019-01-21T10:28:34.946Z,37.29
2019-01-21T10:37:05.914Z,36.82
2019-01-21T10:48:53.779Z,37.60
2019-01-21T10:54:43.771Z,36.04
2019-01-21T10:57:38.603Z,35.72
2019-01-21T11:03:52.657Z,39.74
2019-01-21T11:09:56.571Z,38.59
2019-01-21T11:41:09.536Z,38.41
2019-01-21T11:50:13.194Z,37.07
2019-01-21T11:59:59.751Z,39.04
2019-01-21T12:02:48.215Z,38.33
2019-01-21T12:05:39.185Z,38.86
2019-01-21T12:08:17.071Z,38.71
2019-01-21T12:10:53.705Z,38.72
2019-01-21T12:13:54.323Z,38.29
2019-01-21T12:16:42.072Z,38.38
2019-01-21T12:22:31.871Z,37.12
2019-01-21T12:28:14.339Z,37.86
2019-01-21T12:42:53.758Z,39.15
2019-01-21T13:25:56.187Z,42.31
2019-01-21T13:32:06.854Z,41.64
2019-01-21T13:37:53.997Z,42.39
2019-01-21T13:40:41.948Z,42.34
2019-01-21T13:43:32.949Z,41.64
2019-01-21T13:46:44.368Z,42.49
2019-01-21T13:50:16.247Z,41.84
2019-01-21T13:56:03.834Z,41.24
2019-01-21T13:58:43.923Z,42.05
2019-01-21T14:06:00.687Z,42.12
2019-01-21T14:08:06.118Z,42.17
2019-01-21T14:11:27.968Z,43.15
2019-01-21T14:14:13.583Z,43.49
2019-01-21T14:17:20.787Z,42.37
2019-01-21T14:20:23.820Z,42.48
2019-01-21T14:29:18.958Z,42.01
2019-01-21T14:32:07.153Z,41.80
2019-01-21T14:35:05.888Z,41.88
2019-01-21T14:37:56.053Z,41.83
2019-01-21T14:46:24.808Z,43.17
2019-01-21T14:49:06.462Z,43.94
2019-01-21T14:51:57.293Z,45.01
2019-01-21T14:54:51.715Z,45.76
2019-01-21T14:57:58.391Z,45.05
2019-01-21T15:01:14.616Z,44.44
2019-01-21T15:07:41.018Z,44.47
2019-01-21T15:13:25.184Z,44.72
2019-01-21T15:16:29.304Z,44.84
2019-01-21T15:19:29.044Z,45.39
2019-01-21T15:22:43.940Z,46.06
2019-01-21T15:25:34.520Z,45.40
2019-01-21T15:28:28.466Z,45.71
2019-01-21T15:31:02.591Z,45.96
2019-01-21T15:33:57.974Z,46.24
2019-01-21T15:36:41.959Z,47.14
2019-01-21T15:39:42.538Z,47.26
2019-01-21T16:03:01.837Z,45.46
2019-01-21T16:06:09.264Z,45.59
2019-01-21T16:09:02.223Z,45.88
2019-01-21T16:33:36.104Z,47.72
2019-01-21T16:51:49.050Z,47.44
2019-01-21T16:54:22.508Z,47.40
2019-01-21T16:56:57.533Z,47.39
2019-01-21T16:59:30.618Z,47.72
2019-01-21T17:02:05.125Z,47.56
2019-01-21T17:08:00.778Z,47.36
2019-01-21T17:10:54.518Z,47.28
2019-01-21T17:13:54.262Z,47.12
2019-01-21T17:16:29.760Z,47.22
2019-01-21T17:19:11.623Z,47.21
2019-01-21T17:22:02.812Z,47.20
2019-01-21T17:24:44.729Z,47.42
2019-01-21T17:27:24.803Z,47.38
2019-01-21T17:30:09.713Z,47.43
2019-01-21T17:32:44.817Z,47.60
2019-01-21T17:35:20.476Z,47.59
2019-01-21T17:37:51.511Z,47.61
2019-01-21T17:40:40.234Z,47.80
2019-01-21T17:43:22.368Z,47.85
2019-01-21T17:46:28.399Z,47.97
2019-01-21T17:48:57.719Z,48.35
2019-01-21T17:51:43.301Z,48.19
2019-01-21T17:54:12.039Z,48.13
2019-01-21T17:59:51.061Z,48.13
2019-01-21T18:02:27.961Z,48.36
2019-01-21T18:04:57.593Z,48.91
2019-01-21T18:07:31.229Z,48.86
2019-01-21T18:10:06.238Z,48.72
2019-01-21T18:12:42.084Z,48.77
2019-01-21T19:20:29.190Z,52.14
2019-01-21T19:22:52.690Z,51.81
2019-01-21T19:25:48.768Z,51.62
2019-01-21T19:28:40.340Z,51.66
2019-01-21T19:31:28.794Z,51.67
2019-01-21T19:34:42.152Z,51.62
2019-01-21T19:43:19.471Z,51.59
2019-01-21T19:46:33.340Z,51.62
2019-01-21T21:49:31.741Z,53.78
2019-01-21T22:16:42.253Z,54.20
2019-01-21T22:19:48.279Z,54.64
